Greystones, Ireland
Current Conditions -  °F | °C
As of 4:00 AM on Monday 26 Jan 2015 (Local Time) from EIME Reporting Station
Broken Clouds Broken Clouds  
Wind Chill: 34°   Ceiling: 4000
Heat Index: 41°   Visibility: 6mi
Dew Point: 39°   Wind: 13mph
Humidity: 93%   Direction: 260°W
Pressure: 30.18"   Gusts: NA
Location:  53.14°N, 6.07°W
Report Text: EIME 260400Z 26011KT 9999 FEW015 BKN040 BKN100 05/04 Q1022
Loading
Personal Weather Stations






























Interactive Weather Map New forecast layout! Learn more

10-Day Weather Forecast

Advertisements
Track Severe Weather on mobile